North Bend, OR (97459)

12:38 AM PST on February 27, 2017 (GMT -0800)
Edd Family | | Change Station

Elev 120 ft 43.40 °N, 124.25 °W | Updated 9 seconds ago

Mostly Cloudy
Mostly Cloudy
36.9 °F
Feels Like 37 °F
N
0.0
Wind Variable Wind from South
Gusts 4.0 mph

Today
High -- | Low -- °F
--% Chance of Precip.
Yesterday
High -- | Low -- °F
Precip. -- in
Pressure 29.85 in
Visibility 10.0 miles
Clouds Few 2800 ft
Scattered Clouds 3500 ft
Mostly Cloudy 4900 ft
Windchill 37 °F
Dew Point 34 °F
Humidity 90%
Rainfall 0.00 in
Snow Depth Not available.
6:55 AM 6:03 PM
New Moon, 1% visible
METAR KOTH 270835Z 15008KT 10SM FEW028 SCT035 BKN049 03/03 A2985 RMK AO1
Pressure 29.85 in
Visibility 10.0 miles
Clouds Few 2800 ft
Scattered Clouds 3500 ft
Mostly Cloudy 4900 ft
Windchill 37 °F
Dew Point 34 °F
Humidity 90%
Rainfall 0.00 in
Snow Depth Not available.
6:55 AM 6:03 PM
New Moon, 1% visible
METAR KOTH 270835Z 15008KT 10SM FEW028 SCT035 BKN049 03/03 A2985 RMK AO1

Get Your Daily Forecast Email!

Thanks for signing up!

Be on the lookout for a verification email in your inbox.

You'll start receiving the daily forecast at 8 AM.

×

10-Day Weather Forecast

Almanac

Astronomy

Feb. 27, 2017 Rise Set
Actual Time
Civil Twilight
Nautical Twilight
Astronomical Twilight
Moon
Length of Visible Light
Length of Day
Tomorrow will be .
, % of the Moon is Illuminated

Today's Extremes

State Highs State Lows

Community

WunderPhotos

Upload Photos

1,962,540 photos uploaded!

WunderBlog® & News

Nearby

Air Quality

  Air Quality AQ Index Pollutant
Not available.

Snow Depth

Station Depth Elevation

Earthquake Activity

City Distance Mag. Time & Date
Minimum magnitude displayed is 2.5.

Coastal Water Temperatures

Place Temperature

Stations

Nearby Weather Stations

Station Location Temp. Windchill Dew Point Humidity Wind Precip. Elev Updated Type
                   

Watches & Warnings

There are currently no watches in effect.